Time;durP1;ratioP1;P1;durP2;ratioP2;P2;SDS_P1;SDS_P2;PMS_P1;PMS_P2;Temp;Humidity;BMP_temperature;BMP_pressure;BME280_temperature;BME280_humidity;BME280_pressure;Samples;Min_cycle;Max_cycle;Signal;HPM_P1;HPM_P2
2024/01/12 00:00:52;;;;;;;72.73;18.43;;;;;;;;;;4936985;29;20800;-86
2024/01/12 00:03:18;;;;;;;75.03;18.80;;;;;;;;;;4935482;29;20430;-84
2024/01/12 00:05:45;;;;;;;49.73;19.13;;;;;;;;;;4952311;29;20437;-86
2024/01/12 00:08:11;;;;;;;63.70;18.47;;;;;;;;;;4955344;29;20506;-86
2024/01/12 00:10:37;;;;;;;71.77;19.10;;;;;;;;;;4954199;28;21030;-86
2024/01/12 00:13:03;;;;;;;53.90;18.23;;;;;;;;;;4955470;29;20424;-86
2024/01/12 00:15:29;;;;;;;58.83;19.20;;;;;;;;;;4955424;28;20422;-86
2024/01/12 00:17:54;;;;;;;115.60;23.70;;;;;;;;;;4922949;29;20469;-86
2024/01/12 00:20:20;;;;;;;59.93;18.03;;;;;;;;;;4934456;29;20438;-86
2024/01/12 00:22:56;;;;;;;90.27;21.80;;;;;;;;;;4936084;29;20494;-85
2024/01/12 00:25:22;;;;;;;67.57;20.47;;;;;;;;;;4930760;29;20425;-86
2024/01/12 00:27:48;;;;;;;55.13;20.13;;;;;;;;;;4932009;29;20454;-85
2024/01/12 00:30:14;;;;;;;80.57;20.50;;;;;;;;;;4952448;29;20428;-86
2024/01/12 00:32:39;;;;;;;68.53;19.33;;;;;;;;;;4953221;29;20539;-86
2024/01/12 00:35:06;;;;;;;67.43;20.80;;;;;;;;;;4942974;29;20477;-83
2024/01/12 00:37:32;;;;;;;72.83;21.27;;;;;;;;;;4903406;28;20511;-83
2024/01/12 00:39:58;;;;;;;59.87;20.20;;;;;;;;;;4934328;29;20481;-86
2024/01/12 00:42:23;;;;;;;53.90;20.00;;;;;;;;;;4935816;29;20436;-86
2024/01/12 00:44:49;;;;;;;62.00;20.33;;;;;;;;;;4935821;29;20419;-86
2024/01/12 00:47:15;;;;;;;54.63;20.80;;;;;;;;;;4936005;29;20405;-86
2024/01/12 00:49:41;;;;;;;47.03;19.10;;;;;;;;;;4935946;29;20445;-86
2024/01/12 00:52:07;;;;;;;43.20;17.43;;;;;;;;;;4951375;29;20477;-83
2024/01/12 00:54:33;;;;;;;38.50;16.27;;;;;;;;;;4954569;29;20911;-87
2024/01/12 00:56:59;;;;;;;39.43;17.53;;;;;;;;;;4953658;29;20435;-86
2024/01/12 00:59:25;;;;;;;42.20;15.37;;;;;;;;;;4954838;29;20768;-86
2024/01/12 01:01:56;;;;;;;25.03;14.57;;;;;;;;;;4954897;28;21079;-86
2024/01/12 01:04:25;;;;;;;45.33;15.23;;;;;;;;;;4954849;29;20407;-86
2024/01/12 01:06:52;;;;;;;27.80;14.03;;;;;;;;;;4954641;29;20429;-86
2024/01/12 01:09:18;;;;;;;27.70;15.00;;;;;;;;;;4954469;28;20413;-86
2024/01/12 01:11:44;;;;;;;25.27;14.30;;;;;;;;;;4953349;29;20580;-86
2024/01/12 01:14:10;;;;;;;27.80;14.93;;;;;;;;;;4953445;29;20774;-86
2024/01/12 01:16:36;;;;;;;37.97;15.80;;;;;;;;;;4954404;29;20437;-86
2024/01/12 01:19:02;;;;;;;31.23;15.60;;;;;;;;;;4954758;29;20427;-84
2024/01/12 01:21:29;;;;;;;46.83;16.13;;;;;;;;;;4954551;28;20429;-85
2024/01/12 01:23:56;;;;;;;59.17;17.27;;;;;;;;;;4954045;29;20464;-86
2024/01/12 01:26:21;;;;;;;42.20;17.03;;;;;;;;;;4952953;29;20473;-86
2024/01/12 01:28:50;;;;;;;51.03;16.27;;;;;;;;;;4954385;29;20956;-86
2024/01/12 01:31:16;;;;;;;35.37;16.20;;;;;;;;;;4955136;28;20476;-85
2024/01/12 01:33:42;;;;;;;49.87;16.13;;;;;;;;;;4958449;29;20753;-86
2024/01/12 01:36:08;;;;;;;45.97;16.80;;;;;;;;;;4958429;29;20423;-86
2024/01/12 01:38:34;;;;;;;55.10;17.33;;;;;;;;;;4905470;28;20493;-86
2024/01/12 01:41:01;;;;;;;51.57;17.30;;;;;;;;;;4939356;29;20769;-86
2024/01/12 01:43:27;;;;;;;67.57;19.40;;;;;;;;;;4939401;29;20971;-84
2024/01/12 01:45:53;;;;;;;36.30;15.37;;;;;;;;;;4939389;29;20421;-87
2024/01/12 01:48:19;;;;;;;54.60;18.60;;;;;;;;;;4939137;29;20424;-87
2024/01/12 01:50:45;;;;;;;78.53;18.57;;;;;;;;;;4939320;29;20891;-86
2024/01/12 01:53:11;;;;;;;41.13;15.17;;;;;;;;;;4938801;29;20453;-86
2024/01/12 01:55:37;;;;;;;59.67;19.07;;;;;;;;;;4939056;29;20496;-87
2024/01/12 01:58:03;;;;;;;59.80;18.60;;;;;;;;;;4939107;29;20582;-82
2024/01/12 02:00:32;;;;;;;60.33;18.80;;;;;;;;;;4937843;29;20424;-83
2024/01/12 02:02:58;;;;;;;49.80;17.63;;;;;;;;;;4939474;29;20429;-88
2024/01/12 02:05:24;;;;;;;66.63;19.80;;;;;;;;;;4937918;29;20445;-88
2024/01/12 02:07:50;;;;;;;90.37;21.07;;;;;;;;;;4938588;29;20485;-88
2024/01/12 02:10:16;;;;;;;60.57;18.80;;;;;;;;;;4939120;29;20453;-87
2024/01/12 02:12:42;;;;;;;99.07;20.60;;;;;;;;;;4938700;29;20571;-87
2024/01/12 02:15:08;;;;;;;65.90;18.77;;;;;;;;;;4938785;29;20520;-84
2024/01/12 02:17:35;;;;;;;78.23;16.87;;;;;;;;;;4938630;29;20468;-81
2024/01/12 02:20:01;;;;;;;66.67;18.90;;;;;;;;;;4938176;29;20437;-83
2024/01/12 02:22:27;;;;;;;52.13;16.87;;;;;;;;;;4947024;29;20760;-82
2024/01/12 02:24:53;;;;;;;50.67;17.60;;;;;;;;;;4956073;29;20472;-81
2024/01/12 02:27:20;;;;;;;56.53;16.83;;;;;;;;;;4956347;29;20421;-82
2024/01/12 02:29:46;;;;;;;74.43;19.33;;;;;;;;;;4957570;28;20413;-86
2024/01/12 02:32:12;;;;;;;59.80;18.23;;;;;;;;;;4957378;28;20473;-86
2024/01/12 02:34:38;;;;;;;67.60;20.60;;;;;;;;;;4957470;28;20424;-86
2024/01/12 02:37:04;;;;;;;67.87;18.20;;;;;;;;;;4957518;28;20895;-86
2024/01/12 02:39:30;;;;;;;80.97;17.53;;;;;;;;;;4917444;28;20436;-86
2024/01/12 02:41:57;;;;;;;67.07;17.73;;;;;;;;;;4956103;28;20440;-87
2024/01/12 02:44:24;;;;;;;82.57;21.80;;;;;;;;;;4956110;28;20417;-87
2024/01/12 02:46:50;;;;;;;61.50;18.87;;;;;;;;;;4957199;29;20445;-83
2024/01/12 02:49:16;;;;;;;62.63;17.30;;;;;;;;;;4957077;29;20440;-82
2024/01/12 02:51:46;;;;;;;77.00;19.87;;;;;;;;;;4943032;29;20970;-82
2024/01/12 02:54:11;;;;;;;81.00;20.07;;;;;;;;;;4937469;29;20417;-86
2024/01/12 02:56:37;;;;;;;73.10;19.73;;;;;;;;;;4937568;29;20516;-82
2024/01/12 02:59:03;;;;;;;58.57;17.40;;;;;;;;;;4937814;29;20745;-83
2024/01/12 03:01:29;;;;;;;62.83;16.37;;;;;;;;;;4936496;29;20454;-82
2024/01/12 03:03:55;;;;;;;43.90;17.20;;;;;;;;;;4937664;29;20516;-82
2024/01/12 03:06:21;;;;;;;63.63;17.03;;;;;;;;;;4936370;29;20437;-82
2024/01/12 03:08:47;;;;;;;46.83;17.10;;;;;;;;;;4937230;29;20921;-81
2024/01/12 03:11:13;;;;;;;67.73;19.13;;;;;;;;;;4937704;29;20477;-88
2024/01/12 03:13:39;;;;;;;59.93;18.47;;;;;;;;;;4937846;29;20417;-88
2024/01/12 03:16:05;;;;;;;52.17;16.37;;;;;;;;;;4937608;29;20479;-83
2024/01/12 03:18:32;;;;;;;67.80;18.37;;;;;;;;;;4936186;29;20425;-85
2024/01/12 03:20:58;;;;;;;44.07;17.10;;;;;;;;;;4937619;29;20413;-87
2024/01/12 03:23:24;;;;;;;61.63;17.30;;;;;;;;;;4936891;29;20489;-86
2024/01/12 03:25:50;;;;;;;43.50;14.27;;;;;;;;;;4987780;23;20593;-82
2024/01/12 03:28:16;;;;;;;58.87;15.97;;;;;;;;;;4937808;29;20861;-82
2024/01/12 03:30:42;;;;;;;37.70;16.10;;;;;;;;;;4937611;29;20822;-85
2024/01/12 03:33:08;;;;;;;51.93;16.80;;;;;;;;;;4948740;28;20453;-84
2024/01/12 03:35:38;;;;;;;65.23;17.40;;;;;;;;;;4918570;29;20413;-85
2024/01/12 03:38:04;;;;;;;78.43;19.10;;;;;;;;;;4932767;29;20434;-85
2024/01/12 03:40:30;;;;;;;80.73;20.20;;;;;;;;;;4892184;29;20444;-84
2024/01/12 03:42:55;;;;;;;90.27;21.17;;;;;;;;;;4937362;29;20469;-85
2024/01/12 03:45:21;;;;;;;68.53;19.30;;;;;;;;;;4937450;29;20612;-82
2024/01/12 03:47:47;;;;;;;89.57;19.43;;;;;;;;;;4937374;29;20820;-80
2024/01/12 03:50:13;;;;;;;93.40;20.30;;;;;;;;;;4937192;29;20741;-81
2024/01/12 03:52:40;;;;;;;73.13;19.30;;;;;;;;;;4936338;29;20472;-86
2024/01/12 03:55:06;;;;;;;68.87;19.90;;;;;;;;;;4936367;29;20414;-86
2024/01/12 03:57:32;;;;;;;98.63;22.87;;;;;;;;;;4934626;29;20817;-81
2024/01/12 03:59:58;;;;;;;77.33;21.30;;;;;;;;;;4936302;28;20424;-86
2024/01/12 04:02:23;;;;;;;73.03;20.50;;;;;;;;;;4936859;29;20410;-84
2024/01/12 04:04:49;;;;;;;88.97;19.30;;;;;;;;;;4936467;29;20953;-85
2024/01/12 04:07:15;;;;;;;80.97;18.77;;;;;;;;;;4936133;29;20418;-85
2024/01/12 04:09:42;;;;;;;104.57;23.20;;;;;;;;;;4936276;29;20785;-80
2024/01/12 04:12:09;;;;;;;84.53;20.77;;;;;;;;;;4936447;29;20478;-85
2024/01/12 04:14:35;;;;;;;105.20;23.10;;;;;;;;;;4937070;29;20417;-86
2024/01/12 04:17:01;;;;;;;83.93;22.00;;;;;;;;;;4937254;29;20817;-81
2024/01/12 04:19:29;;;;;;;68.00;20.93;;;;;;;;;;4936834;29;20409;-85
2024/01/12 04:21:55;;;;;;;81.73;22.13;;;;;;;;;;4935635;29;20840;-84
2024/01/12 04:24:21;;;;;;;106.17;22.00;;;;;;;;;;4936899;29;20418;-85
2024/01/12 04:26:47;;;;;;;59.40;21.50;;;;;;;;;;4936760;29;20474;-80
2024/01/12 04:29:13;;;;;;;94.33;23.20;;;;;;;;;;4937142;29;20417;-86
2024/01/12 04:31:40;;;;;;;103.93;22.77;;;;;;;;;;4935612;29;20477;-85
2024/01/12 04:34:09;;;;;;;81.50;21.27;;;;;;;;;;4935432;29;20926;-86
2024/01/12 04:36:37;;;;;;;76.53;19.10;;;;;;;;;;4936522;29;20430;-87
2024/01/12 04:39:04;;;;;;;95.57;23.60;;;;;;;;;;4936669;29;20421;-85
2024/01/12 04:41:33;;;;;;;63.70;20.83;;;;;;;;;;4936594;29;20422;-86
2024/01/12 04:43:58;;;;;;;68.67;21.73;;;;;;;;;;4936490;29;20414;-85
2024/01/12 04:46:24;;;;;;;67.30;22.20;;;;;;;;;;4935249;29;21043;-85
2024/01/12 04:48:50;;;;;;;96.83;22.63;;;;;;;;;;4936740;29;20410;-85
2024/01/12 04:51:16;;;;;;;80.13;22.87;;;;;;;;;;4936443;29;20512;-81
2024/01/12 04:53:42;;;;;;;53.27;20.17;;;;;;;;;;4935881;29;20405;-85
2024/01/12 04:56:08;;;;;;;41.03;18.73;;;;;;;;;;4936226;29;20930;-84
2024/01/12 04:58:34;;;;;;;53.17;20.10;;;;;;;;;;4936436;29;20414;-85
2024/01/12 05:01:00;;;;;;;81.90;22.20;;;;;;;;;;4937482;29;20775;-85
2024/01/12 05:03:26;;;;;;;72.93;21.63;;;;;;;;;;4896110;29;20985;-81
2024/01/12 05:05:52;;;;;;;55.70;20.30;;;;;;;;;;4935801;29;20418;-85
2024/01/12 05:08:18;;;;;;;50.50;18.00;;;;;;;;;;4936169;29;20413;-85
2024/01/12 05:10:47;;;;;;;64.20;21.70;;;;;;;;;;4935971;29;20426;-84
2024/01/12 05:13:13;;;;;;;52.40;18.93;;;;;;;;;;4934744;29;20832;-85
2024/01/12 05:15:39;;;;;;;48.30;18.73;;;;;;;;;;4936375;29;20910;-84
2024/01/12 05:18:08;;;;;;;53.37;18.03;;;;;;;;;;4936332;29;20425;-85
2024/01/12 05:20:34;;;;;;;47.70;17.97;;;;;;;;;;4935072;29;20429;-82
2024/01/12 05:22:59;;;;;;;33.13;17.27;;;;;;;;;;4935711;29;20418;-85
2024/01/12 05:25:25;;;;;;;30.60;16.00;;;;;;;;;;4935949;29;20483;-84
2024/01/12 05:27:51;;;;;;;43.60;19.40;;;;;;;;;;4936061;29;20421;-85
2024/01/12 05:30:17;;;;;;;48.37;18.80;;;;;;;;;;4936010;29;20421;-85
2024/01/12 05:32:43;;;;;;;36.90;16.90;;;;;;;;;;4935985;29;20540;-86
2024/01/12 05:35:09;;;;;;;36.43;17.20;;;;;;;;;;4936221;29;20417;-86
2024/01/12 05:37:35;;;;;;;54.63;20.00;;;;;;;;;;4935458;29;20913;-86
2024/01/12 05:40:01;;;;;;;44.63;17.40;;;;;;;;;;4935627;29;20410;-86
2024/01/12 05:42:27;;;;;;;40.13;19.40;;;;;;;;;;4934464;29;20532;-82
2024/01/12 05:44:53;;;;;;;46.50;21.10;;;;;;;;;;4935730;29;20456;-86
2024/01/12 05:47:19;;;;;;;56.43;20.27;;;;;;;;;;4935536;29;20757;-82
2024/01/12 05:49:48;;;;;;;45.97;18.67;;;;;;;;;;4935638;29;20786;-86
2024/01/12 05:52:14;;;;;;;38.63;18.50;;;;;;;;;;4935141;29;20547;-85
2024/01/12 05:54:39;;;;;;;35.27;16.40;;;;;;;;;;4935589;29;20414;-86
2024/01/12 05:57:05;;;;;;;39.07;18.00;;;;;;;;;;4935940;29;20428;-89
2024/01/12 05:59:32;;;;;;;32.40;17.23;;;;;;;;;;4936934;29;20890;-90
2024/01/12 06:01:58;;;;;;;35.23;17.43;;;;;;;;;;4937519;29;20428;-86
2024/01/12 06:04:24;;;;;;;33.00;15.63;;;;;;;;;;4936770;29;20409;-89
2024/01/12 06:06:50;;;;;;;29.10;15.67;;;;;;;;;;4898487;29;20437;-88
2024/01/12 06:09:17;;;;;;;31.30;15.43;;;;;;;;;;4938218;29;20817;-89
2024/01/12 06:11:43;;;;;;;30.20;15.37;;;;;;;;;;4936627;29;20469;-89
2024/01/12 06:14:09;;;;;;;27.17;14.97;;;;;;;;;;4937593;29;20953;-89
2024/01/12 06:16:35;;;;;;;28.20;14.33;;;;;;;;;;4937636;29;20438;-90
2024/01/12 06:19:01;;;;;;;28.43;15.87;;;;;;;;;;4939708;29;20460;-89
2024/01/12 06:21:27;;;;;;;33.90;17.37;;;;;;;;;;4939231;29;20488;-87
2024/01/12 06:23:53;;;;;;;28.93;15.00;;;;;;;;;;4938903;29;20418;-87
2024/01/12 06:26:19;;;;;;;31.10;15.87;;;;;;;;;;4938814;29;20555;-87
2024/01/12 06:28:45;;;;;;;28.43;14.93;;;;;;;;;;4939247;29;20443;-88
2024/01/12 06:31:11;;;;;;;28.40;14.53;;;;;;;;;;4954036;29;20501;-87
2024/01/12 06:33:40;;;;;;;22.07;12.87;;;;;;;;;;4939238;29;20588;-87
2024/01/12 06:36:06;;;;;;;23.97;13.80;;;;;;;;;;4939045;29;20402;-88
2024/01/12 06:38:32;;;;;;;28.77;15.33;;;;;;;;;;4938805;29;20429;-87
2024/01/12 06:40:58;;;;;;;23.67;12.87;;;;;;;;;;4939078;29;20429;-88
2024/01/12 06:43:24;;;;;;;24.23;13.10;;;;;;;;;;4939013;29;20428;-87
2024/01/12 06:45:50;;;;;;;25.80;12.27;;;;;;;;;;4939011;29;20477;-88
2024/01/12 06:48:16;;;;;;;21.77;13.87;;;;;;;;;;4953726;29;20454;-88
2024/01/12 06:50:42;;;;;;;27.93;14.77;;;;;;;;;;4953617;28;20422;-87
2024/01/12 06:53:09;;;;;;;28.47;15.90;;;;;;;;;;4938771;29;20449;-88
2024/01/12 06:55:36;;;;;;;28.60;16.80;;;;;;;;;;4938800;29;20933;-87
2024/01/12 06:58:02;;;;;;;33.73;17.07;;;;;;;;;;4943375;29;20410;-86
2024/01/12 07:00:28;;;;;;;25.63;14.57;;;;;;;;;;4960398;28;20509;-88
2024/01/12 07:02:54;;;;;;;21.37;11.67;;;;;;;;;;4944701;29;20413;-88
2024/01/12 07:05:20;;;;;;;21.83;12.40;;;;;;;;;;4941168;29;20417;-85
2024/01/12 07:07:46;;;;;;;24.70;12.47;;;;;;;;;;4942311;29;20425;-86
2024/01/12 07:10:13;;;;;;;21.53;12.40;;;;;;;;;;4938516;29;20418;-85
2024/01/12 07:12:39;;;;;;;26.83;13.53;;;;;;;;;;4952967;29;20555;-86
2024/01/12 07:15:05;;;;;;;23.43;13.73;;;;;;;;;;4938275;29;20511;-87
2024/01/12 07:17:31;;;;;;;25.80;13.10;;;;;;;;;;4937942;29;21013;-84
2024/01/12 07:19:57;;;;;;;32.00;13.10;;;;;;;;;;4937908;29;20460;-86
2024/01/12 07:22:23;;;;;;;25.43;12.90;;;;;;;;;;4937909;29;20425;-87
2024/01/12 07:24:49;;;;;;;32.50;12.80;;;;;;;;;;4937924;29;20413;-87
2024/01/12 07:27:16;;;;;;;32.70;14.07;;;;;;;;;;4937988;29;20431;-85
2024/01/12 07:29:42;;;;;;;27.63;11.17;;;;;;;;;;4937275;29;20476;-86
2024/01/12 07:32:11;;;;;;;20.00;11.73;;;;;;;;;;4938282;29;20567;-88
2024/01/12 07:34:37;;;;;;;23.77;13.07;;;;;;;;;;4938016;29;20441;-87
2024/01/12 07:37:03;;;;;;;22.93;11.97;;;;;;;;;;4937679;29;20453;-87
2024/01/12 07:39:29;;;;;;;19.40;10.60;;;;;;;;;;4938036;29;20472;-89
2024/01/12 07:41:55;;;;;;;28.07;11.00;;;;;;;;;;4937770;29;20425;-84
2024/01/12 07:44:21;;;;;;;20.90;10.50;;;;;;;;;;4937928;29;20789;-82
2024/01/12 07:46:47;;;;;;;18.97;8.93;;;;;;;;;;4952956;29;20434;-87
2024/01/12 07:49:13;;;;;;;19.97;11.27;;;;;;;;;;4938049;29;20933;-85
2024/01/12 07:51:39;;;;;;;26.27;11.10;;;;;;;;;;4937359;29;20472;-82
2024/01/12 07:54:05;;;;;;;24.00;12.40;;;;;;;;;;4937694;29;20401;-88
2024/01/12 07:56:31;;;;;;;26.63;12.33;;;;;;;;;;4937798;29;20507;-87
2024/01/12 07:58:57;;;;;;;26.40;14.37;;;;;;;;;;4937251;29;20434;-79
2024/01/12 08:01:23;;;;;;;21.87;11.40;;;;;;;;;;4951962;28;20919;-82
2024/01/12 08:03:50;;;;;;;26.80;14.57;;;;;;;;;;4937213;29;20416;-80
2024/01/12 08:06:16;;;;;;;16.17;10.97;;;;;;;;;;4937031;29;20958;-79
2024/01/12 08:08:42;;;;;;;20.13;12.37;;;;;;;;;;4936731;29;20417;-86
2024/01/12 08:11:08;;;;;;;23.80;12.20;;;;;;;;;;4936881;29;20472;-86
2024/01/12 08:13:34;;;;;;;17.53;10.67;;;;;;;;;;4951642;29;20439;-84
2024/01/12 08:16:00;;;;;;;19.97;11.80;;;;;;;;;;4936848;29;20413;-83
2024/01/12 08:18:26;;;;;;;17.80;10.20;;;;;;;;;;4951424;29;20929;-85
2024/01/12 08:20:52;;;;;;;23.70;12.87;;;;;;;;;;4936814;29;20449;-85
2024/01/12 08:23:18;;;;;;;21.70;12.37;;;;;;;;;;4936547;29;20476;-86
2024/01/12 08:25:44;;;;;;;21.27;9.90;;;;;;;;;;4936776;29;20560;-85
2024/01/12 08:28:10;;;;;;;24.20;13.67;;;;;;;;;;4936780;29;20426;-85
2024/01/12 08:30:35;;;;;;;22.10;11.67;;;;;;;;;;4936495;29;20405;-86
2024/01/12 08:33:01;;;;;;;19.50;10.50;;;;;;;;;;4936799;29;20421;-87
2024/01/12 08:35:28;;;;;;;19.73;11.27;;;;;;;;;;4951502;29;20520;-87
2024/01/12 08:37:54;;;;;;;21.53;11.40;;;;;;;;;;4936198;29;20460;-87
2024/01/12 08:40:20;;;;;;;25.57;12.20;;;;;;;;;;4951125;28;20459;-87
2024/01/12 08:42:46;;;;;;;20.80;10.63;;;;;;;;;;4936249;29;20595;-83
2024/01/12 08:45:12;;;;;;;16.47;10.50;;;;;;;;;;4936255;29;20914;-85
2024/01/12 08:47:38;;;;;;;17.47;9.60;;;;;;;;;;4936246;29;20423;-85
2024/01/12 08:50:05;;;;;;;24.33;13.00;;;;;;;;;;4936311;29;20421;-85
2024/01/12 08:52:31;;;;;;;19.87;11.13;;;;;;;;;;4935719;29;20481;-84
2024/01/12 08:54:57;;;;;;;26.13;11.80;;;;;;;;;;4936153;29;20409;-85
2024/01/12 08:57:23;;;;;;;23.43;11.70;;;;;;;;;;4936239;29;20418;-83
2024/01/12 08:59:48;;;;;;;36.07;14.00;;;;;;;;;;4936107;29;20473;-85
2024/01/12 09:02:14;;;;;;;19.77;10.97;;;;;;;;;;4950724;29;20432;-85
2024/01/12 09:04:40;;;;;;;25.50;10.23;;;;;;;;;;4936077;29;20414;-84
2024/01/12 09:07:06;;;;;;;26.33;12.20;;;;;;;;;;4935581;29;20426;-85
2024/01/12 09:09:34;;;;;;;29.73;12.17;;;;;;;;;;4936258;29;20415;-86
2024/01/12 09:12:00;;;;;;;21.80;10.50;;;;;;;;;;4950277;28;20569;-88
2024/01/12 09:14:27;;;;;;;17.47;11.20;;;;;;;;;;4936073;29;20489;-86
2024/01/12 09:16:53;;;;;;;25.60;10.50;;;;;;;;;;4936037;29;20424;-85
2024/01/12 09:19:19;;;;;;;22.67;11.10;;;;;;;;;;4935978;29;20409;-84
2024/01/12 09:21:45;;;;;;;21.00;11.90;;;;;;;;;;4934334;29;20812;-87
2024/01/12 09:24:12;;;;;;;21.27;10.87;;;;;;;;;;4936577;29;20842;-88
2024/01/12 09:26:37;;;;;;;21.80;11.33;;;;;;;;;;4936287;29;20492;-86
2024/01/12 09:29:04;;;;;;;21.40;10.20;;;;;;;;;;4935680;29;20451;-88
2024/01/12 09:31:30;;;;;;;22.33;11.90;;;;;;;;;;4935906;29;20478;-86
2024/01/12 09:33:56;;;;;;;24.10;11.13;;;;;;;;;;4935682;29;20477;-85
2024/01/12 09:36:22;;;;;;;22.70;11.73;;;;;;;;;;4935653;29;20446;-85
2024/01/12 09:38:48;;;;;;;21.90;10.00;;;;;;;;;;4935972;29;20454;-85
2024/01/12 09:41:18;;;;;;;22.70;12.00;;;;;;;;;;4935728;29;20445;-86
2024/01/12 09:43:45;;;;;;;20.33;11.40;;;;;;;;;;4935845;29;20417;-82
2024/01/12 09:46:11;;;;;;;24.03;12.30;;;;;;;;;;4935909;29;20530;-82
2024/01/12 09:48:38;;;;;;;24.63;12.43;;;;;;;;;;4935573;29;20418;-84
2024/01/12 09:51:07;;;;;;;25.23;11.40;;;;;;;;;;4935065;29;20524;-83
2024/01/12 09:53:33;;;;;;;21.87;11.70;;;;;;;;;;4937977;29;20425;-82
2024/01/12 09:56:03;;;;;;;25.13;13.63;;;;;;;;;;4939174;29;20984;-84
2024/01/12 09:58:29;;;;;;;21.80;13.10;;;;;;;;;;4939334;29;20479;-84
2024/01/12 10:00:55;;;;;;;23.67;12.33;;;;;;;;;;4939239;29;20413;-82
2024/01/12 10:03:21;;;;;;;23.67;13.17;;;;;;;;;;4940025;29;20830;-88
2024/01/12 10:05:47;;;;;;;20.73;12.67;;;;;;;;;;4939721;29;20424;-88
2024/01/12 10:08:13;;;;;;;21.90;11.60;;;;;;;;;;4939143;29;20818;-88
2024/01/12 10:10:40;;;;;;;21.53;9.53;;;;;;;;;;4939275;29;20412;-87
2024/01/12 10:13:06;;;;;;;21.50;12.47;;;;;;;;;;4918463;29;20436;-81
2024/01/12 10:15:39;;;;;;;20.23;10.70;;;;;;;;;;4921372;29;20906;-87
2024/01/12 10:18:05;;;;;;;23.60;12.43;;;;;;;;;;4938594;29;20965;-88
2024/01/12 10:20:35;;;;;;;19.33;10.33;;;;;;;;;;4938459;29;20499;-86
2024/01/12 10:23:01;;;;;;;21.87;11.63;;;;;;;;;;4953553;28;20487;-85
2024/01/12 10:25:30;;;;;;;19.77;10.17;;;;;;;;;;4938384;29;20455;-87
2024/01/12 10:27:57;;;;;;;22.60;10.40;;;;;;;;;;4938791;29;20535;-87
2024/01/12 10:30:23;;;;;;;24.27;11.30;;;;;;;;;;4938179;29;20452;-87
2024/01/12 10:32:52;;;;;;;19.43;10.13;;;;;;;;;;4938561;29;21013;-87
2024/01/12 10:35:22;;;;;;;19.30;9.07;;;;;;;;;;4938937;29;20501;-87
2024/01/12 10:37:49;;;;;;;20.80;9.40;;;;;;;;;;4938734;29;20821;-88
2024/01/12 10:40:16;;;;;;;20.43;11.40;;;;;;;;;;4938972;29;20413;-87
2024/01/12 10:42:45;;;;;;;14.10;8.37;;;;;;;;;;4938905;29;20506;-87
2024/01/12 10:45:13;;;;;;;20.30;11.60;;;;;;;;;;4939128;29;20415;-87
2024/01/12 10:47:40;;;;;;;18.13;9.27;;;;;;;;;;4938512;29;20416;-86
2024/01/12 10:50:07;;;;;;;16.27;9.10;;;;;;;;;;4938271;29;20416;-86
2024/01/12 10:52:36;;;;;;;22.10;10.87;;;;;;;;;;4938029;29;20536;-86
2024/01/12 10:55:06;;;;;;;17.27;9.60;;;;;;;;;;4938345;29;20413;-87
2024/01/12 10:57:32;;;;;;;16.87;8.50;;;;;;;;;;4938299;29;20425;-87
2024/01/12 10:59:59;;;;;;;20.13;8.63;;;;;;;;;;4938443;29;21059;-86
2024/01/12 11:02:25;;;;;;;17.43;7.27;;;;;;;;;;4937817;29;20421;-87
2024/01/12 11:04:51;;;;;;;15.80;7.80;;;;;;;;;;4936844;29;20430;-87
2024/01/12 11:07:18;;;;;;;15.73;8.00;;;;;;;;;;4937868;29;20509;-85
2024/01/12 11:09:43;;;;;;;14.13;8.03;;;;;;;;;;4938121;29;20415;-86
2024/01/12 11:12:10;;;;;;;10.17;5.90;;;;;;;;;;4938032;29;20867;-87
2024/01/12 11:14:37;;;;;;;13.63;8.00;;;;;;;;;;4936801;29;20448;-85
2024/01/12 11:17:05;;;;;;;15.80;8.53;;;;;;;;;;4937405;29;20415;-86
2024/01/12 11:19:32;;;;;;;15.37;6.83;;;;;;;;;;4937798;29;20950;-86
2024/01/12 11:22:16;;;;;;;13.03;6.97;;;;;;;;;;4937610;29;20409;-86
2024/01/12 11:24:42;;;;;;;10.80;6.03;;;;;;;;;;4937622;29;20857;-87
2024/01/12 11:27:10;;;;;;;17.97;7.93;;;;;;;;;;4937782;29;20443;-86
2024/01/12 11:29:45;;;;;;;16.17;8.20;;;;;;;;;;4936328;29;20510;-86
2024/01/12 11:32:15;;;;;;;20.53;7.83;;;;;;;;;;4937578;29;20945;-85
2024/01/12 11:34:41;;;;;;;20.67;9.97;;;;;;;;;;4937568;29;20432;-86
2024/01/12 11:37:10;;;;;;;19.50;10.60;;;;;;;;;;4897533;29;20445;-85
2024/01/12 11:39:41;;;;;;;19.83;8.97;;;;;;;;;;4937424;29;20408;-86
2024/01/12 11:42:07;;;;;;;20.40;9.20;;;;;;;;;;4937316;29;20420;-85
2024/01/12 11:44:34;;;;;;;19.63;10.10;;;;;;;;;;4937125;29;20441;-86
2024/01/12 11:47:00;;;;;;;15.37;8.27;;;;;;;;;;4937219;29;20447;-86
2024/01/12 11:49:26;;;;;;;17.50;8.77;;;;;;;;;;4936662;29;20421;-86
2024/01/12 11:52:03;;;;;;;17.20;8.83;;;;;;;;;;4936621;29;20482;-84
2024/01/12 11:54:29;;;;;;;18.53;10.20;;;;;;;;;;4936947;29;20869;-85
2024/01/12 11:56:56;;;;;;;14.30;8.00;;;;;;;;;;4936854;29;20457;-83
2024/01/12 11:59:21;;;;;;;16.60;9.50;;;;;;;;;;4935791;29;20428;-86
2024/01/12 12:01:50;;;;;;;19.83;10.57;;;;;;;;;;4935738;29;20426;-85
2024/01/12 12:04:19;;;;;;;24.93;10.03;;;;;;;;;;4935838;29;20962;-85
2024/01/12 12:06:46;;;;;;;19.90;8.80;;;;;;;;;;4936497;29;20424;-84
2024/01/12 12:09:12;;;;;;;23.37;10.63;;;;;;;;;;4936940;29;20415;-84
2024/01/12 12:11:38;;;;;;;22.07;9.07;;;;;;;;;;4936804;29;21100;-86
2024/01/12 12:14:04;;;;;;;29.87;10.00;;;;;;;;;;4936183;29;20514;-87
2024/01/12 12:16:30;;;;;;;23.77;10.40;;;;;;;;;;4934951;29;20504;-89
2024/01/12 12:18:56;;;;;;;19.60;8.77;;;;;;;;;;4936624;29;20429;-84
2024/01/12 12:21:22;;;;;;;24.50;10.53;;;;;;;;;;4949920;28;20423;-83
2024/01/12 12:23:48;;;;;;;17.27;9.13;;;;;;;;;;4938338;29;20412;-87
2024/01/12 12:26:17;;;;;;;23.40;11.63;;;;;;;;;;4937262;29;20795;-86
2024/01/12 12:28:45;;;;;;;21.00;10.33;;;;;;;;;;4937861;29;20466;-88
2024/01/12 12:31:11;;;;;;;24.97;11.20;;;;;;;;;;4937510;29;20801;-87
2024/01/12 12:33:37;;;;;;;20.67;11.23;;;;;;;;;;4937105;29;20428;-88
2024/01/12 12:36:07;;;;;;;16.50;10.40;;;;;;;;;;4936641;29;20968;-87
2024/01/12 12:38:34;;;;;;;18.73;8.80;;;;;;;;;;4936393;29;20430;-87
2024/01/12 12:41:00;;;;;;;22.90;9.80;;;;;;;;;;4935914;29;20413;-88
2024/01/12 12:43:26;;;;;;;22.67;9.83;;;;;;;;;;4931550;29;20420;-82
2024/01/12 12:45:52;;;;;;;20.03;9.40;;;;;;;;;;4900512;29;20417;-87
2024/01/12 12:48:18;;;;;;;18.83;9.80;;;;;;;;;;4935986;29;20447;-87
2024/01/12 12:50:44;;;;;;;24.00;10.93;;;;;;;;;;4950428;28;20509;-85
2024/01/12 12:53:11;;;;;;;17.17;8.03;;;;;;;;;;4935280;29;20440;-88
2024/01/12 12:55:37;;;;;;;28.37;10.23;;;;;;;;;;4934951;29;20420;-87
2024/01/12 12:58:03;;;;;;;24.07;9.47;;;;;;;;;;4935382;29;20421;-88
2024/01/12 13:00:29;;;;;;;25.90;10.00;;;;;;;;;;4936076;29;20562;-88
2024/01/12 13:02:56;;;;;;;21.53;9.73;;;;;;;;;;4935979;29;20522;-88
2024/01/12 13:05:22;;;;;;;24.23;12.80;;;;;;;;;;4936153;29;20808;-87
2024/01/12 13:07:49;;;;;;;20.60;10.73;;;;;;;;;;4935882;29;20515;-87
2024/01/12 13:10:15;;;;;;;16.50;9.70;;;;;;;;;;4935919;29;20915;-87
2024/01/12 13:12:41;;;;;;;20.40;9.40;;;;;;;;;;4935553;29;20480;-88
2024/01/12 13:15:07;;;;;;;24.13;10.93;;;;;;;;;;4936218;29;20423;-88
2024/01/12 13:17:33;;;;;;;20.87;9.87;;;;;;;;;;4937523;29;20418;-88
2024/01/12 13:19:59;;;;;;;19.37;8.93;;;;;;;;;;4936169;29;20903;-87
2024/01/12 13:22:25;;;;;;;15.77;8.67;;;;;;;;;;4935721;29;20507;-88
2024/01/12 13:24:51;;;;;;;18.10;10.40;;;;;;;;;;4934546;29;20426;-88
2024/01/12 13:27:17;;;;;;;22.70;11.93;;;;;;;;;;4935206;29;20517;-87
2024/01/12 13:29:43;;;;;;;21.10;10.57;;;;;;;;;;4935769;29;20410;-88
2024/01/12 13:32:12;;;;;;;30.23;9.80;;;;;;;;;;4935680;29;20896;-88
2024/01/12 13:34:38;;;;;;;21.53;9.60;;;;;;;;;;4935724;29;20441;-88
2024/01/12 13:37:07;;;;;;;20.83;11.83;;;;;;;;;;4935305;29;20454;-88
2024/01/12 13:39:33;;;;;;;25.33;11.80;;;;;;;;;;4922994;29;20422;-88
2024/01/12 13:42:02;;;;;;;21.07;10.20;;;;;;;;;;4935620;29;20763;-87
2024/01/12 13:44:28;;;;;;;19.70;10.07;;;;;;;;;;4935407;29;20417;-87
2024/01/12 13:46:55;;;;;;;27.00;11.30;;;;;;;;;;4935266;29;20402;-87
2024/01/12 13:49:20;;;;;;;18.30;10.00;;;;;;;;;;4935260;29;20414;-87
2024/01/12 13:51:53;;;;;;;24.93;11.90;;;;;;;;;;4935109;29;20473;-86
2024/01/12 13:54:19;;;;;;;32.60;11.20;;;;;;;;;;4934224;29;20421;-87
2024/01/12 13:56:45;;;;;;;19.37;10.00;;;;;;;;;;4935501;28;21385;-87
2024/01/12 13:59:11;;;;;;;20.10;9.80;;;;;;;;;;4935475;28;20423;-88
2024/01/12 14:01:37;;;;;;;18.80;9.27;;;;;;;;;;4935564;29;20418;-87
2024/01/12 14:04:07;;;;;;;17.57;9.63;;;;;;;;;;4935257;29;20485;-86
2024/01/12 14:06:36;;;;;;;17.17;8.57;;;;;;;;;;4935979;29;20418;-87
2024/01/12 14:09:04;;;;;;;19.57;9.77;;;;;;;;;;4935955;29;20478;-86
2024/01/12 14:11:31;;;;;;;18.27;7.67;;;;;;;;;;4934482;29;20456;-89
2024/01/12 14:13:57;;;;;;;15.83;8.13;;;;;;;;;;4935788;29;20772;-86